sensor_id;sensor_type;location;lat;lon;timestamp;pressure;altitude;pressure_sealevel;temperature;humidity
57126;BME280;43000;50.770;6.110;2022-08-19T00:00:45;99364.19;;;17.58;82.49
57126;BME280;43000;50.770;6.110;2022-08-19T00:03:11;99364.81;;;17.72;81.60
57126;BME280;43000;50.770;6.110;2022-08-19T00:05:39;99362.41;;;17.80;80.69
57126;BME280;43000;50.770;6.110;2022-08-19T00:08:07;99354.59;;;17.77;81.27
57126;BME280;43000;50.770;6.110;2022-08-19T00:10:34;99363.28;;;17.69;81.40
57126;BME280;43000;50.770;6.110;2022-08-19T00:13:00;99362.38;;;17.59;81.96
57126;BME280;43000;50.770;6.110;2022-08-19T00:15:27;99355.81;;;17.63;81.61
57126;BME280;43000;50.770;6.110;2022-08-19T00:17:53;99364.47;;;17.55;81.91
57126;BME280;43000;50.770;6.110;2022-08-19T00:20:21;99358.91;;;17.47;82.75
57126;BME280;43000;50.770;6.110;2022-08-19T00:22:49;99356.31;;;17.57;81.99
57126;BME280;43000;50.770;6.110;2022-08-19T00:25:17;99358.16;;;17.56;82.00
57126;BME280;43000;50.770;6.110;2022-08-19T00:27:43;99348.88;;;17.51;81.91
57126;BME280;43000;50.770;6.110;2022-08-19T00:30:11;99350.09;;;17.47;81.96
57126;BME280;43000;50.770;6.110;2022-08-19T00:32:38;99348.69;;;17.43;82.76
57126;BME280;43000;50.770;6.110;2022-08-19T00:35:06;99345.41;;;17.39;83.06
57126;BME280;43000;50.770;6.110;2022-08-19T00:37:33;99346.91;;;17.32;83.53
57126;BME280;43000;50.770;6.110;2022-08-19T00:40:03;99346.78;;;17.33;83.55
57126;BME280;43000;50.770;6.110;2022-08-19T00:42:29;99348.47;;;17.34;82.85
57126;BME280;43000;50.770;6.110;2022-08-19T00:44:56;99341.19;;;17.36;83.59
57126;BME280;43000;50.770;6.110;2022-08-19T00:47:23;99340.91;;;17.39;82.99
57126;BME280;43000;50.770;6.110;2022-08-19T00:49:52;99334.03;;;17.37;82.87
57126;BME280;43000;50.770;6.110;2022-08-19T00:52:23;99334.31;;;17.34;82.73
57126;BME280;43000;50.770;6.110;2022-08-19T00:54:51;99342.56;;;17.31;82.76
57126;BME280;43000;50.770;6.110;2022-08-19T00:57:24;99341.13;;;17.27;82.79
57126;BME280;43000;50.770;6.110;2022-08-19T00:59:54;99351.97;;;17.14;83.36
57126;BME280;43000;50.770;6.110;2022-08-19T01:02:21;99353.56;;;17.05;83.61
57126;BME280;43000;50.770;6.110;2022-08-19T01:04:48;99351.41;;;16.99;84.16
57126;BME280;43000;50.770;6.110;2022-08-19T01:07:15;99346.34;;;16.96;84.48
57126;BME280;43000;50.770;6.110;2022-08-19T01:09:41;99348.41;;;16.92;84.52
57126;BME280;43000;50.770;6.110;2022-08-19T01:12:08;99352.06;;;16.91;84.55
57126;BME280;43000;50.770;6.110;2022-08-19T01:14:38;99349.66;;;16.88;84.58
57126;BME280;43000;50.770;6.110;2022-08-19T01:17:07;99344.72;;;16.84;84.84
57126;BME280;43000;50.770;6.110;2022-08-19T01:19:37;99344.09;;;16.80;84.83
57126;BME280;43000;50.770;6.110;2022-08-19T01:22:10;99345.16;;;16.78;85.00
57126;BME280;43000;50.770;6.110;2022-08-19T01:24:40;99336.44;;;16.75;85.11
57126;BME280;43000;50.770;6.110;2022-08-19T01:27:07;99340.09;;;16.74;85.57
57126;BME280;43000;50.770;6.110;2022-08-19T01:29:37;99336.81;;;16.71;85.57
57126;BME280;43000;50.770;6.110;2022-08-19T01:32:05;99338.53;;;16.72;85.81
57126;BME280;43000;50.770;6.110;2022-08-19T01:34:32;99340.22;;;16.73;85.71
57126;BME280;43000;50.770;6.110;2022-08-19T01:36:59;99344.81;;;16.71;85.51
57126;BME280;43000;50.770;6.110;2022-08-19T01:39:27;99351.00;;;16.71;85.92
57126;BME280;43000;50.770;6.110;2022-08-19T01:41:55;99348.19;;;16.73;85.84
57126;BME280;43000;50.770;6.110;2022-08-19T01:44:22;99351.59;;;16.75;85.77
57126;BME280;43000;50.770;6.110;2022-08-19T01:46:51;99363.78;;;16.78;85.38
57126;BME280;43000;50.770;6.110;2022-08-19T01:49:20;99354.88;;;16.79;85.54
57126;BME280;43000;50.770;6.110;2022-08-19T01:51:47;99352.09;;;16.80;85.14
57126;BME280;43000;50.770;6.110;2022-08-19T01:54:16;99348.19;;;16.84;86.85
57126;BME280;43000;50.770;6.110;2022-08-19T01:56:42;99350.34;;;16.90;84.86
57126;BME280;43000;50.770;6.110;2022-08-19T01:59:13;99350.97;;;16.94;84.61
57126;BME280;43000;50.770;6.110;2022-08-19T02:01:40;99339.31;;;16.95;84.97
57126;BME280;43000;50.770;6.110;2022-08-19T02:04:07;99338.47;;;16.94;84.55
57126;BME280;43000;50.770;6.110;2022-08-19T02:06:34;99344.78;;;16.93;84.52
57126;BME280;43000;50.770;6.110;2022-08-19T02:09:01;99350.44;;;17.00;85.15
57126;BME280;43000;50.770;6.110;2022-08-19T02:11:30;99352.59;;;17.06;84.52
57126;BME280;43000;50.770;6.110;2022-08-19T02:13:59;99352.72;;;17.05;84.53
57126;BME280;43000;50.770;6.110;2022-08-19T02:16:28;99345.44;;;17.07;84.00
57126;BME280;43000;50.770;6.110;2022-08-19T02:18:55;99349.22;;;17.04;84.29
57126;BME280;43000;50.770;6.110;2022-08-19T02:21:22;99346.91;;;17.11;83.95
57126;BME280;43000;50.770;6.110;2022-08-19T02:23:50;99342.59;;;17.20;83.24
57126;BME280;43000;50.770;6.110;2022-08-19T02:26:17;99348.28;;;17.26;83.10
57126;BME280;43000;50.770;6.110;2022-08-19T02:28:44;99346.56;;;17.25;82.19
57126;BME280;43000;50.770;6.110;2022-08-19T02:31:12;99351.97;;;17.14;82.68
57126;BME280;43000;50.770;6.110;2022-08-19T02:33:41;99345.72;;;17.04;83.49
57126;BME280;43000;50.770;6.110;2022-08-19T02:36:09;99346.66;;;17.03;83.39
57126;BME280;43000;50.770;6.110;2022-08-19T02:38:37;99342.06;;;17.05;83.48
57126;BME280;43000;50.770;6.110;2022-08-19T02:41:05;99351.34;;;17.10;83.21
57126;BME280;43000;50.770;6.110;2022-08-19T02:43:34;99356.22;;;17.05;82.92
57126;BME280;43000;50.770;6.110;2022-08-19T02:46:02;99357.84;;;16.97;83.62
57126;BME280;43000;50.770;6.110;2022-08-19T02:48:36;99361.25;;;16.87;83.63
57126;BME280;43000;50.770;6.110;2022-08-19T02:51:05;99356.91;;;16.75;84.68
57126;BME280;43000;50.770;6.110;2022-08-19T02:53:31;99354.97;;;16.77;84.75
57126;BME280;43000;50.770;6.110;2022-08-19T02:55:58;99357.88;;;16.74;84.74
57126;BME280;43000;50.770;6.110;2022-08-19T02:58:24;99360.19;;;16.67;85.15
57126;BME280;43000;50.770;6.110;2022-08-19T03:00:52;99359.34;;;16.67;85.13
57126;BME280;43000;50.770;6.110;2022-08-19T03:03:20;99362.97;;;16.66;85.52
57126;BME280;43000;50.770;6.110;2022-08-19T03:05:46;99355.47;;;16.71;86.07
57126;BME280;43000;50.770;6.110;2022-08-19T03:08:15;99360.53;;;16.85;85.29
57126;BME280;43000;50.770;6.110;2022-08-19T03:10:43;99363.81;;;16.89;84.32
57126;BME280;43000;50.770;6.110;2022-08-19T03:13:12;99363.53;;;16.92;84.39
57126;BME280;43000;50.770;6.110;2022-08-19T03:15:40;99360.50;;;16.97;84.20
57126;BME280;43000;50.770;6.110;2022-08-19T03:18:07;99367.66;;;16.96;84.69
57126;BME280;43000;50.770;6.110;2022-08-19T03:20:34;99374.28;;;17.02;83.03
57126;BME280;43000;50.770;6.110;2022-08-19T03:23:05;99379.25;;;16.95;83.49
57126;BME280;43000;50.770;6.110;2022-08-19T03:25:38;99369.84;;;16.91;84.37
57126;BME280;43000;50.770;6.110;2022-08-19T03:28:06;99378.44;;;16.94;83.84
57126;BME280;43000;50.770;6.110;2022-08-19T03:30:32;99371.00;;;16.98;83.93
57126;BME280;43000;50.770;6.110;2022-08-19T03:32:59;99376.69;;;17.05;83.45
57126;BME280;43000;50.770;6.110;2022-08-19T03:35:26;99370.59;;;17.14;84.10
57126;BME280;43000;50.770;6.110;2022-08-19T03:37:52;99375.41;;;17.20;82.57
57126;BME280;43000;50.770;6.110;2022-08-19T03:40:19;99378.34;;;17.17;82.01
57126;BME280;43000;50.770;6.110;2022-08-19T03:42:47;99376.66;;;17.16;81.95
57126;BME280;43000;50.770;6.110;2022-08-19T03:45:14;99373.75;;;17.08;83.37
57126;BME280;43000;50.770;6.110;2022-08-19T03:47:41;99372.53;;;17.12;82.85
57126;BME280;43000;50.770;6.110;2022-08-19T03:50:08;99360.72;;;17.05;83.27
57126;BME280;43000;50.770;6.110;2022-08-19T03:52:35;99363.03;;;16.98;82.42
57126;BME280;43000;50.770;6.110;2022-08-19T03:55:03;99366.09;;;16.93;83.90
57126;BME280;43000;50.770;6.110;2022-08-19T03:57:30;99368.75;;;16.93;84.75
57126;BME280;43000;50.770;6.110;2022-08-19T03:59:58;99366.41;;;17.00;83.61
57126;BME280;43000;50.770;6.110;2022-08-19T04:02:25;99366.09;;;16.93;84.45
57126;BME280;43000;50.770;6.110;2022-08-19T04:04:53;99374.66;;;16.97;84.26
57126;BME280;43000;50.770;6.110;2022-08-19T04:07:20;99372.00;;;16.97;84.00
57126;BME280;43000;50.770;6.110;2022-08-19T04:09:46;99381.56;;;17.00;84.91
57126;BME280;43000;50.770;6.110;2022-08-19T04:12:13;99375.38;;;16.99;83.69
57126;BME280;43000;50.770;6.110;2022-08-19T04:14:41;99373.44;;;17.01;84.22
57126;BME280;43000;50.770;6.110;2022-08-19T04:17:08;99367.59;;;17.07;84.23
57126;BME280;43000;50.770;6.110;2022-08-19T04:19:36;99363.53;;;17.03;83.58
57126;BME280;43000;50.770;6.110;2022-08-19T04:22:04;99370.53;;;17.04;83.80
57126;BME280;43000;50.770;6.110;2022-08-19T04:24:33;99368.31;;;17.09;82.84
57126;BME280;43000;50.770;6.110;2022-08-19T04:27:00;99370.97;;;17.09;84.23
57126;BME280;43000;50.770;6.110;2022-08-19T04:29:27;99378.59;;;17.14;83.99
57126;BME280;43000;50.770;6.110;2022-08-19T04:31:55;99387.81;;;17.10;85.29
57126;BME280;43000;50.770;6.110;2022-08-19T04:34:26;99383.19;;;17.12;85.22
57126;BME280;43000;50.770;6.110;2022-08-19T04:36:56;99381.97;;;17.16;85.44
57126;BME280;43000;50.770;6.110;2022-08-19T04:39:25;99379.13;;;17.29;85.54
57126;BME280;43000;50.770;6.110;2022-08-19T04:42:12;99389.41;;;17.33;85.93
57126;BME280;43000;50.770;6.110;2022-08-19T04:44:57;99374.84;;;17.37;85.66
57126;BME280;43000;50.770;6.110;2022-08-19T04:47:24;99383.16;;;17.44;86.57
57126;BME280;43000;50.770;6.110;2022-08-19T04:49:52;99381.81;;;17.50;85.96
57126;BME280;43000;50.770;6.110;2022-08-19T04:52:19;99380.84;;;17.51;86.20
57126;BME280;43000;50.770;6.110;2022-08-19T04:54:46;99385.34;;;17.50;86.58
57126;BME280;43000;50.770;6.110;2022-08-19T04:57:13;99390.84;;;17.58;87.00
57126;BME280;43000;50.770;6.110;2022-08-19T04:59:40;99394.34;;;17.59;86.03
57126;BME280;43000;50.770;6.110;2022-08-19T05:02:09;99409.25;;;17.62;86.96
57126;BME280;43000;50.770;6.110;2022-08-19T05:04:36;99413.75;;;17.61;86.42
57126;BME280;43000;50.770;6.110;2022-08-19T05:07:06;99412.91;;;17.60;87.71
57126;BME280;43000;50.770;6.110;2022-08-19T05:09:32;99418.22;;;17.60;88.06
57126;BME280;43000;50.770;6.110;2022-08-19T05:12:00;99418.22;;;17.60;88.53
57126;BME280;43000;50.770;6.110;2022-08-19T05:14:26;99416.28;;;17.63;88.54
57126;BME280;43000;50.770;6.110;2022-08-19T05:16:54;99416.13;;;17.64;88.48
57126;BME280;43000;50.770;6.110;2022-08-19T05:19:20;99421.63;;;17.63;88.79
57126;BME280;43000;50.770;6.110;2022-08-19T05:22:06;99425.84;;;17.65;88.50
57126;BME280;43000;50.770;6.110;2022-08-19T05:24:49;99433.47;;;17.70;88.09
57126;BME280;43000;50.770;6.110;2022-08-19T05:27:16;99433.69;;;17.67;88.10
57126;BME280;43000;50.770;6.110;2022-08-19T05:29:43;99434.78;;;17.64;88.38
57126;BME280;43000;50.770;6.110;2022-08-19T05:32:09;99437.16;;;17.57;88.13
57126;BME280;43000;50.770;6.110;2022-08-19T05:34:37;99433.16;;;17.52;88.32
57126;BME280;43000;50.770;6.110;2022-08-19T05:37:05;99422.88;;;17.47;87.94
57126;BME280;43000;50.770;6.110;2022-08-19T05:39:35;99424.13;;;17.43;87.94
57126;BME280;43000;50.770;6.110;2022-08-19T05:42:04;99420.88;;;17.39;87.69
57126;BME280;43000;50.770;6.110;2022-08-19T05:44:34;99413.13;;;17.36;87.88
57126;BME280;43000;50.770;6.110;2022-08-19T05:47:03;99415.22;;;17.33;87.92
57126;BME280;43000;50.770;6.110;2022-08-19T05:49:31;99409.88;;;17.33;88.23
57126;BME280;43000;50.770;6.110;2022-08-19T05:52:01;99411.56;;;17.34;88.46
57126;BME280;43000;50.770;6.110;2022-08-19T05:54:31;99416.91;;;17.34;87.97
57126;BME280;43000;50.770;6.110;2022-08-19T05:56:58;99415.06;;;17.34;87.82
57126;BME280;43000;50.770;6.110;2022-08-19T05:59:25;99417.00;;;17.32;87.58
57126;BME280;43000;50.770;6.110;2022-08-19T06:01:52;99425.72;;;17.34;87.52
57126;BME280;43000;50.770;6.110;2022-08-19T06:04:22;99421.13;;;17.36;87.07
57126;BME280;43000;50.770;6.110;2022-08-19T06:06:51;99406.59;;;17.41;86.78
57126;BME280;43000;50.770;6.110;2022-08-19T06:09:19;99417.81;;;17.44;86.64
57126;BME280;43000;50.770;6.110;2022-08-19T06:11:49;99419.97;;;17.50;86.30
57126;BME280;43000;50.770;6.110;2022-08-19T06:14:21;99420.63;;;17.64;86.51
57126;BME280;43000;50.770;6.110;2022-08-19T06:16:48;99425.13;;;17.84;85.03
57126;BME280;43000;50.770;6.110;2022-08-19T06:19:17;99416.97;;;17.97;83.63
57126;BME280;43000;50.770;6.110;2022-08-19T06:21:46;99414.91;;;18.10;83.25
57126;BME280;43000;50.770;6.110;2022-08-19T06:24:15;99415.28;;;18.27;82.38
57126;BME280;43000;50.770;6.110;2022-08-19T06:26:43;99421.66;;;18.45;81.12
57126;BME280;43000;50.770;6.110;2022-08-19T06:29:14;99422.84;;;18.62;80.38
57126;BME280;43000;50.770;6.110;2022-08-19T06:31:42;99420.75;;;18.75;79.50
57126;BME280;43000;50.770;6.110;2022-08-19T06:34:09;99430.94;;;18.81;78.74
57126;BME280;43000;50.770;6.110;2022-08-19T06:36:37;99432.22;;;18.87;78.42
57126;BME280;43000;50.770;6.110;2022-08-19T06:39:08;99436.03;;;18.94;78.17
57126;BME280;43000;50.770;6.110;2022-08-19T06:41:37;99442.38;;;19.03;77.65
57126;BME280;43000;50.770;6.110;2022-08-19T06:44:05;99446.03;;;19.12;77.30
57126;BME280;43000;50.770;6.110;2022-08-19T06:46:32;99442.25;;;19.24;76.48
57126;BME280;43000;50.770;6.110;2022-08-19T06:48:59;99432.00;;;19.29;76.08
57126;BME280;43000;50.770;6.110;2022-08-19T06:51:26;99439.47;;;19.35;75.62
57126;BME280;43000;50.770;6.110;2022-08-19T06:53:55;99433.81;;;19.38;75.41
57126;BME280;43000;50.770;6.110;2022-08-19T06:56:24;99436.38;;;19.49;75.18
57126;BME280;43000;50.770;6.110;2022-08-19T06:58:56;99447.06;;;19.69;73.45
57126;BME280;43000;50.770;6.110;2022-08-19T07:01:22;99452.97;;;19.82;72.82
57126;BME280;43000;50.770;6.110;2022-08-19T07:03:50;99448.16;;;19.95;71.62
57126;BME280;43000;50.770;6.110;2022-08-19T07:06:18;99449.41;;;20.11;71.09
57126;BME280;43000;50.770;6.110;2022-08-19T07:08:46;99452.47;;;20.26;71.24
57126;BME280;43000;50.770;6.110;2022-08-19T07:11:15;99457.63;;;20.37;69.48
57126;BME280;43000;50.770;6.110;2022-08-19T07:13:43;99460.28;;;20.47;70.02
57126;BME280;43000;50.770;6.110;2022-08-19T07:16:13;99463.66;;;20.58;68.33
57126;BME280;43000;50.770;6.110;2022-08-19T07:18:41;99472.06;;;20.64;68.67
57126;BME280;43000;50.770;6.110;2022-08-19T07:21:11;99483.78;;;20.63;68.22
57126;BME280;43000;50.770;6.110;2022-08-19T07:23:39;99480.13;;;20.64;68.80
57126;BME280;43000;50.770;6.110;2022-08-19T07:26:09;99475.03;;;20.70;68.58
57126;BME280;43000;50.770;6.110;2022-08-19T07:28:36;99480.06;;;20.73;68.58
57126;BME280;43000;50.770;6.110;2022-08-19T07:31:05;99480.78;;;20.75;69.02
57126;BME280;43000;50.770;6.110;2022-08-19T07:33:32;99469.75;;;20.78;69.15
57126;BME280;43000;50.770;6.110;2022-08-19T07:36:03;99482.31;;;20.78;68.95
57126;BME280;43000;50.770;6.110;2022-08-19T07:38:32;99481.59;;;20.76;69.32
57126;BME280;43000;50.770;6.110;2022-08-19T07:40:59;99486.09;;;20.85;69.29
57126;BME280;43000;50.770;6.110;2022-08-19T07:43:25;99483.94;;;20.89;69.03
57126;BME280;43000;50.770;6.110;2022-08-19T07:45:53;99484.81;;;20.79;69.65
57126;BME280;43000;50.770;6.110;2022-08-19T07:48:22;99487.63;;;20.88;69.84
57126;BME280;43000;50.770;6.110;2022-08-19T07:50:51;99495.44;;;20.99;69.09
57126;BME280;43000;50.770;6.110;2022-08-19T07:53:18;99499.53;;;21.03;69.27
57126;BME280;43000;50.770;6.110;2022-08-19T07:55:46;99501.13;;;21.14;68.84
57126;BME280;43000;50.770;6.110;2022-08-19T07:58:15;99505.97;;;21.10;68.69
57126;BME280;43000;50.770;6.110;2022-08-19T08:00:43;99508.44;;;21.21;68.37
57126;BME280;43000;50.770;6.110;2022-08-19T08:03:10;99508.53;;;21.30;68.18
57126;BME280;43000;50.770;6.110;2022-08-19T08:05:36;99506.66;;;21.40;67.55
57126;BME280;43000;50.770;6.110;2022-08-19T08:08:20;99499.13;;;21.43;67.23
57126;BME280;43000;50.770;6.110;2022-08-19T08:11:06;99503.34;;;21.46;66.43
57126;BME280;43000;50.770;6.110;2022-08-19T08:13:33;99510.81;;;21.52;65.89
57126;BME280;43000;50.770;6.110;2022-08-19T08:16:01;99501.69;;;21.63;65.37
57126;BME280;43000;50.770;6.110;2022-08-19T08:18:28;99501.84;;;21.79;64.53
57126;BME280;43000;50.770;6.110;2022-08-19T08:20:55;99499.06;;;21.89;64.15
57126;BME280;43000;50.770;6.110;2022-08-19T08:23:22;99503.56;;;22.06;63.36
57126;BME280;43000;50.770;6.110;2022-08-19T08:25:50;99504.31;;;22.17;63.06
57126;BME280;43000;50.770;6.110;2022-08-19T08:28:19;99511.94;;;22.21;62.86
57126;BME280;43000;50.770;6.110;2022-08-19T08:30:46;99507.75;;;22.27;62.66
57126;BME280;43000;50.770;6.110;2022-08-19T08:33:14;99513.78;;;22.21;63.28
57126;BME280;43000;50.770;6.110;2022-08-19T08:35:43;99517.59;;;22.18;63.28
57126;BME280;43000;50.770;6.110;2022-08-19T08:38:11;99518.69;;;22.25;63.10
57126;BME280;43000;50.770;6.110;2022-08-19T08:40:43;99517.84;;;22.25;62.99
57126;BME280;43000;50.770;6.110;2022-08-19T08:43:20;99518.06;;;22.14;63.36
57126;BME280;43000;50.770;6.110;2022-08-19T08:45:51;99523.19;;;22.07;63.41
57126;BME280;43000;50.770;6.110;2022-08-19T08:48:32;99521.59;;;21.96;63.56
57126;BME280;43000;50.770;6.110;2022-08-19T08:51:03;99524.00;;;21.81;64.10
57126;BME280;43000;50.770;6.110;2022-08-19T08:53:31;99527.91;;;21.87;63.89
57126;BME280;43000;50.770;6.110;2022-08-19T08:56:01;99526.59;;;21.91;63.75
57126;BME280;43000;50.770;6.110;2022-08-19T08:58:36;99530.41;;;22.06;63.35
57126;BME280;43000;50.770;6.110;2022-08-19T09:01:09;99525.22;;;22.23;62.73
57126;BME280;43000;50.770;6.110;2022-08-19T09:03:41;99524.84;;;22.44;61.77
57126;BME280;43000;50.770;6.110;2022-08-19T09:06:13;99527.09;;;22.31;62.46
57126;BME280;43000;50.770;6.110;2022-08-19T09:08:47;99515.63;;;22.20;62.35
57126;BME280;43000;50.770;6.110;2022-08-19T09:11:21;99516.69;;;22.27;62.22
57126;BME280;43000;50.770;6.110;2022-08-19T09:14:04;99510.34;;;22.37;62.27
57126;BME280;43000;50.770;6.110;2022-08-19T09:16:33;99521.88;;;22.29;62.45
57126;BME280;43000;50.770;6.110;2022-08-19T09:19:03;99519.53;;;22.26;62.17
57126;BME280;43000;50.770;6.110;2022-08-19T09:21:30;99521.38;;;22.25;62.32
57126;BME280;43000;50.770;6.110;2022-08-19T09:23:57;99521.41;;;22.34;61.82
57126;BME280;43000;50.770;6.110;2022-08-19T09:26:24;99519.53;;;22.52;61.43
57126;BME280;43000;50.770;6.110;2022-08-19T09:28:52;99516.16;;;22.84;60.71
57126;BME280;43000;50.770;6.110;2022-08-19T09:31:25;99516.72;;;23.39;58.20
57126;BME280;43000;50.770;6.110;2022-08-19T09:33:52;99510.91;;;24.00;56.06
57126;BME280;43000;50.770;6.110;2022-08-19T09:36:23;99510.09;;;24.80;53.95
57126;BME280;43000;50.770;6.110;2022-08-19T09:38:52;99516.81;;;25.32;51.95
57126;BME280;43000;50.770;6.110;2022-08-19T09:41:21;99509.81;;;25.46;51.72
57126;BME280;43000;50.770;6.110;2022-08-19T09:43:50;99515.66;;;25.26;52.86
57126;BME280;43000;50.770;6.110;2022-08-19T09:46:19;99507.72;;;25.87;50.85
57126;BME280;43000;50.770;6.110;2022-08-19T09:48:48;99500.97;;;25.60;50.88
57126;BME280;43000;50.770;6.110;2022-08-19T09:51:22;99501.44;;;25.41;51.12
57126;BME280;43000;50.770;6.110;2022-08-19T09:53:51;99497.97;;;26.16;49.86
57126;BME280;43000;50.770;6.110;2022-08-19T09:56:19;99497.78;;;27.00;47.20
57126;BME280;43000;50.770;6.110;2022-08-19T09:58:47;99498.22;;;27.04;46.72
57126;BME280;43000;50.770;6.110;2022-08-19T10:01:18;99501.41;;;26.77;48.08
57126;BME280;43000;50.770;6.110;2022-08-19T10:03:48;99497.25;;;26.22;49.17
57126;BME280;43000;50.770;6.110;2022-08-19T10:06:17;99500.19;;;26.95;47.34
57126;BME280;43000;50.770;6.110;2022-08-19T10:08:44;99500.34;;;26.34;48.61
57126;BME280;43000;50.770;6.110;2022-08-19T10:11:11;99500.25;;;25.89;48.71
57126;BME280;43000;50.770;6.110;2022-08-19T10:13:39;99491.22;;;25.51;49.53
57126;BME280;43000;50.770;6.110;2022-08-19T10:16:08;99499.06;;;25.84;49.43
57126;BME280;43000;50.770;6.110;2022-08-19T10:18:37;99486.56;;;25.91;48.91
57126;BME280;43000;50.770;6.110;2022-08-19T10:21:07;99492.50;;;25.86;49.12
57126;BME280;43000;50.770;6.110;2022-08-19T10:23:35;99495.78;;;26.20;48.46
57126;BME280;43000;50.770;6.110;2022-08-19T10:26:02;99497.38;;;25.91;48.60
57126;BME280;43000;50.770;6.110;2022-08-19T10:28:32;99480.16;;;25.92;47.86
57126;BME280;43000;50.770;6.110;2022-08-19T10:31:03;99488.66;;;26.19;47.66
57126;BME280;43000;50.770;6.110;2022-08-19T10:33:32;99485.06;;;25.88;48.18
57126;BME280;43000;50.770;6.110;2022-08-19T10:35:59;99490.25;;;25.67;48.80
57126;BME280;43000;50.770;6.110;2022-08-19T10:38:28;99490.56;;;26.48;47.24
57126;BME280;43000;50.770;6.110;2022-08-19T10:40:55;99489.16;;;26.37;47.02
57126;BME280;43000;50.770;6.110;2022-08-19T10:43:22;99484.19;;;26.11;47.25
57126;BME280;43000;50.770;6.110;2022-08-19T10:45:52;99489.81;;;26.24;46.75
57126;BME280;43000;50.770;6.110;2022-08-19T10:48:19;99483.34;;;26.63;45.99
57126;BME280;43000;50.770;6.110;2022-08-19T10:50:45;99476.72;;;27.53;44.34
57126;BME280;43000;50.770;6.110;2022-08-19T10:53:31;99484.28;;;27.79;42.99
57126;BME280;43000;50.770;6.110;2022-08-19T10:55:57;99484.16;;;26.93;44.75
57126;BME280;43000;50.770;6.110;2022-08-19T10:58:42;99479.88;;;26.69;44.82
57126;BME280;43000;50.770;6.110;2022-08-19T11:01:08;99483.88;;;26.44;45.88
57126;BME280;43000;50.770;6.110;2022-08-19T11:03:35;99478.31;;;26.07;47.44
57126;BME280;43000;50.770;6.110;2022-08-19T11:06:03;99485.00;;;25.97;47.25
57126;BME280;43000;50.770;6.110;2022-08-19T11:08:32;99475.38;;;25.71;47.73
57126;BME280;43000;50.770;6.110;2022-08-19T11:11:01;99476.22;;;25.48;48.48
57126;BME280;43000;50.770;6.110;2022-08-19T11:13:29;99474.59;;;25.39;49.28
57126;BME280;43000;50.770;6.110;2022-08-19T11:15:57;99478.63;;;25.43;49.49
57126;BME280;43000;50.770;6.110;2022-08-19T11:18:24;99479.38;;;25.60;49.13
57126;BME280;43000;50.770;6.110;2022-08-19T11:20:51;99478.03;;;25.56;49.04
57126;BME280;43000;50.770;6.110;2022-08-19T11:23:17;99477.56;;;25.76;48.79
57126;BME280;43000;50.770;6.110;2022-08-19T11:25:46;99478.22;;;25.78;48.17
57126;BME280;43000;50.770;6.110;2022-08-19T11:28:12;99483.38;;;25.64;48.24
57126;BME280;43000;50.770;6.110;2022-08-19T11:30:39;99481.22;;;25.60;48.54
57126;BME280;43000;50.770;6.110;2022-08-19T11:33:05;99477.47;;;25.84;48.18
57126;BME280;43000;50.770;6.110;2022-08-19T11:35:32;99485.72;;;25.90;48.22
57126;BME280;43000;50.770;6.110;2022-08-19T11:37:59;99475.81;;;25.83;48.33
57126;BME280;43000;50.770;6.110;2022-08-19T11:40:26;99479.41;;;25.75;48.60
57126;BME280;43000;50.770;6.110;2022-08-19T11:42:54;99471.69;;;25.72;48.42
57126;BME280;43000;50.770;6.110;2022-08-19T11:45:21;99465.97;;;25.67;48.71
57126;BME280;43000;50.770;6.110;2022-08-19T11:47:48;99469.84;;;25.64;48.94
57126;BME280;43000;50.770;6.110;2022-08-19T11:50:15;99465.44;;;25.48;49.42
57126;BME280;43000;50.770;6.110;2022-08-19T11:52:42;99466.94;;;25.51;49.15
57126;BME280;43000;50.770;6.110;2022-08-19T11:55:10;99455.69;;;25.47;49.24
57126;BME280;43000;50.770;6.110;2022-08-19T11:57:37;99463.28;;;25.44;48.82
57126;BME280;43000;50.770;6.110;2022-08-19T12:00:08;99455.59;;;25.56;48.93
57126;BME280;43000;50.770;6.110;2022-08-19T12:02:36;99463.22;;;25.52;48.69
57126;BME280;43000;50.770;6.110;2022-08-19T12:05:03;99458.00;;;25.51;48.48
57126;BME280;43000;50.770;6.110;2022-08-19T12:07:30;99452.38;;;25.60;48.69
57126;BME280;43000;50.770;6.110;2022-08-19T12:09:58;99446.53;;;25.71;48.93
57126;BME280;43000;50.770;6.110;2022-08-19T12:12:25;99454.75;;;25.78;47.43
57126;BME280;43000;50.770;6.110;2022-08-19T12:14:52;99446.59;;;25.86;46.35
57126;BME280;43000;50.770;6.110;2022-08-19T12:17:23;99454.69;;;25.86;46.32
57126;BME280;43000;50.770;6.110;2022-08-19T12:19:50;99451.75;;;25.73;46.99
57126;BME280;43000;50.770;6.110;2022-08-19T12:22:16;99455.56;;;25.79;47.13
57126;BME280;43000;50.770;6.110;2022-08-19T12:24:43;99448.28;;;25.87;46.16
57126;BME280;43000;50.770;6.110;2022-08-19T12:27:10;99448.31;;;25.79;45.41
57126;BME280;43000;50.770;6.110;2022-08-19T12:29:36;99448.31;;;25.79;45.91
57126;BME280;43000;50.770;6.110;2022-08-19T12:32:03;99443.94;;;25.78;45.85
57126;BME280;43000;50.770;6.110;2022-08-19T12:34:32;99446.59;;;25.86;45.96
57126;BME280;43000;50.770;6.110;2022-08-19T12:37:05;99436.22;;;25.75;46.24
57126;BME280;43000;50.770;6.110;2022-08-19T12:39:35;99432.09;;;25.79;46.31
57126;BME280;43000;50.770;6.110;2022-08-19T12:42:03;99432.34;;;25.69;45.42
57126;BME280;43000;50.770;6.110;2022-08-19T12:44:30;99432.31;;;25.78;45.19
57126;BME280;43000;50.770;6.110;2022-08-19T12:46:57;99430.31;;;25.71;45.04
57126;BME280;43000;50.770;6.110;2022-08-19T12:49:24;99425.38;;;25.60;45.49
57126;BME280;43000;50.770;6.110;2022-08-19T12:51:52;99414.66;;;25.67;46.05
57126;BME280;43000;50.770;6.110;2022-08-19T12:54:19;99418.03;;;25.69;45.45
57126;BME280;43000;50.770;6.110;2022-08-19T12:56:45;99416.38;;;25.83;45.68
57126;BME280;43000;50.770;6.110;2022-08-19T12:59:12;99416.88;;;25.86;45.95
57126;BME280;43000;50.770;6.110;2022-08-19T13:01:43;99420.94;;;26.05;45.57
57126;BME280;43000;50.770;6.110;2022-08-19T13:04:09;99418.34;;;26.12;45.59
57126;BME280;43000;50.770;6.110;2022-08-19T13:06:36;99423.72;;;26.12;45.65